KAFN/AFN METAR and TAF weather

Enter ICAO airport designator
Station Type Date Time Source
KAFN METAR 2020/11/28 19:52 UTC NOAA

KAFN 281952Z AUTO 25008KT 10SM FEW033 BKN043 BKN060 07/01 A2989 RMK AO2 SLP134 T00720006


Station Type Date Time Source
KAFN Decoded METAR 2020/11/28 19:52 UTC NOAA

JAFFREY MUNI-SILVER RANCH, NH, United States (KAFN) 42-48N 72-00W 313M
Nov 28, 2020 - 02:52 PM EST / 2020.11.28 1952 UTC
Wind: from the WSW (250 degrees) at 9 MPH (8 KT):0
Visibility: 10 mile(s):0
Sky conditions: mostly cloudy
Temperature: 45.0 F (7.2 C)
Dew Point: 33.1 F (0.6 C)
Relative Humidity: 62%
Pressure (altimeter): 29.89 in. Hg (1012 hPa)
ob: KAFN 281952Z AUTO 25008KT 10SM FEW033 BKN043 BKN060 07/01 A2989 RMK AO2 SLP134 T00720006
cycle: 20

Station Type Date Time Source
KAFN TAF UTC NOAA

Error!

Example: see airport list